Latest Weather Observations for Hobart Airport

IDT60901

Issued at 8:51 am EST Monday 20 April 2015 (issued every 10 minutes, with the page automatically refreshed every 10 minutes)

About weather observations | Map of Hobart area stations | Latest observations for Hobart area | Other Formats
Station Details ID: 094008 Name: HOBART AIRPORT Lat: -42.83 Lon: 147.50 Height: 4.0 m
Data from the previous 72 hours. | See also: Recent months at Hobart Airport
Date/Time
EST
Tmp

°C
App
Tmp
°C
Dew
Point
°C
Rel
Hum
%
Delta-T

°C
Wind Press
QNH
hPa
Press
MSL
hPa
Rain
since
9 am
mm
Dir
 
Spd
km/h
Gust
km/h
Spd
kts
Gust
kts
20/08:30am 7.8 2.7 1.0 62 2.7 NNW 17 24 9 13 1036.7 1036.7 0.0
20/08:00am 6.7 2.4 1.1 67 2.2 NNW 13 24 7 13 1036.5 1036.5 0.0
20/07:30am 5.3 1.0 0.9 73 1.7 NW 13 19 7 10 1036.3 1036.3 0.0
20/07:00am 4.2 0.2 0.8 78 1.3 NNW 11 15 6 8 1035.9 1035.9 0.0
20/06:30am 4.4 0.8 0.7 77 1.4 NNW 9 13 5 7 1035.7 1035.7 0.0
20/05:30am 4.6 0.3 0.7 76 1.5 NNW 13 20 7 11 1035.2 1035.3 0.0
20/05:00am 4.8 0.4 0.6 74 1.6 NW 13 17 7 9 1035.0 1035.1 0.0
20/04:30am 4.7 -0.4 0.8 76 1.5 NW 17 20 9 11 1034.9 1035.0 0.0
20/04:00am 5.2 0.5 1.1 75 1.6 NW 15 17 8 9 1034.8 1034.9 0.0
20/03:30am 5.4 0.7 0.7 72 1.8 NW 15 19 8 10 1034.8 1034.9 0.0
20/03:00am 5.6 1.3 1.0 72 1.8 NW 13 19 7 10 1034.9 1035.0 0.0
20/02:30am 5.7 0.6 0.5 69 2.0 NW 17 20 9 11 1034.9 1035.0 0.0
20/02:00am 5.6 0.6 1.3 74 1.7 NW 17 19 9 10 1034.9 1035.0 0.0
20/01:30am 5.8 1.5 1.2 72 1.8 NW 13 19 7 10 1034.9 1035.0 0.0
20/01:00am 5.4 0.8 1.6 76 1.5 NW 15 19 8 10 1034.8 1034.9 0.0
 
Date/Time
EST
Tmp

°C
App
Tmp
°C
Dew
Point
°C
Rel
Hum
%
Delta-T

°C
Wind Press
QNH
hPa
Press
MSL
hPa
Rain
since
9 am
mm
Dir
 
Spd
km/h
Gust
km/h
Spd
kts
Gust
kts
19/11:30pm 5.2 0.5 0.8 73 1.7 NW 15 17 8 9 1034.5 1034.6 0.0
19/11:00pm 5.7 1.7 0.8 71 1.9 NW 11 13 6 7 1034.3 1034.4 0.0
19/10:30pm 5.9 2.2 0.1 66 2.2 WNW 9 13 5 7 1034.2 1034.3 0.0
19/10:00pm 4.7 1.4 -0.1 71 1.8 NNW 7 9 4 5 1034.0 1034.1 0.0
19/09:30pm 6.1 2.8 -0.2 64 2.4 SW 7 7 4 4 1034.0 1034.1 0.0
19/09:00pm 4.7 1.5 -0.4 69 1.9 NW 6 7 3 4 1033.8 1033.9 0.0
19/08:30pm 7.2 4.7 -1.0 56 3.1 WSW 2 6 1 3 1033.1 1033.2 0.0
19/08:00pm 7.5 3.6 -1.3 53 3.3 WNW 9 13 5 7 1032.5 1032.6 0.0
19/07:30pm 7.5 3.3 -1.0 55 3.2 WSW 11 15 6 8 1032.1 1032.1 0.0
19/07:00pm 8.4 4.2 -0.7 52 3.5 SW 11 13 6 7 1031.6 1031.6 0.0
19/05:30pm 10.4 4.4 -1.9 42 4.7 WSW 20 26 11 14 1030.0 1030.0 0.0
19/05:00pm 11.6 6.4 -2.5 37 5.4 SW 15 22 8 12 1029.5 1029.5 0.0
19/04:30pm 12.1 6.5 -0.2 42 5.0 S 19 24 10 13 1028.8 1028.8 0.0
19/04:00pm 12.5 7.1 -4.1 31 6.2 S 15 22 8 12 1028.5 1028.5 0.0
19/03:30pm 12.7 6.2 -5.5 27 6.6 S 20 28 11 15 1028.3 1028.3 0.0
19/03:00pm 12.5 6.0 -6.0 27 6.6 SSW 20 28 11 15 1028.0 1028.0 0.0
19/02:30pm 12.5 6.1 -4.6 30 6.4 S 20 30 11 16 1027.6 1027.6 0.0
19/02:00pm 12.2 5.9 -4.3 31 6.1 SSW 20 32 11 17 1027.3 1027.3 0.0
19/01:30pm 12.4 4.2 -3.9 32 6.1 SSW 30 41 16 22 1027.0 1027.0 0.0
19/01:19pm 12.3 5.2 -4.5 30 6.2 SSW 24 35 13 19 1026.9 1026.9 0.0
19/01:00pm 12.2 6.3 -1.1 39 5.3 SSW 20 35 11 19 1026.7 1026.7 0.0
19/12:30pm 11.2 4.5 -0.9 43 4.8 SSW 24 37 13 20 1026.5 1026.5 0.0
19/12:00pm 11.8 6.3 -1.8 38 5.3 SSW 17 26 9 14 1026.5 1026.5 0.0
19/11:30am 10.9 5.3 0.0 47 4.4 SSW 19 30 10 16 1026.4 1026.4 0.0
19/11:00am 10.4 4.1 1.8 55 3.6 S 24 35 13 19 1026.1 1026.1 0.0
19/10:30am 11.1 4.9 -0.4 45 4.6 SW 22 37 12 20 1025.5 1025.5 0.0
19/10:00am 10.6 4.3 -1.1 44 4.6 SW 22 33 12 18 1025.0 1025.0 0.0
19/09:30am 10.1 4.9 -0.2 49 4.1 SSW 17 28 9 15 1024.5 1024.5 0.0
19/09:00am 9.6 2.6 -0.6 49 4.0 SW 26 41 14 22 1024.0 1024.0 0.8
19/08:43am 9.6 2.3 0.1 51 3.8 SW 28 48 15 26 1023.7 1023.7 0.8
19/08:30am 9.8 3.2 -0.6 48 4.1 SW 24 37 13 20 1023.3 1023.3 0.8
19/08:00am 9.5 3.6 -1.1 47 4.1 WSW 20 32 11 17 1022.4 1022.4 0.8
19/07:30am 8.5 3.6 -0.5 53 3.5 WSW 15 22 8 12 1021.6 1021.6 0.8
19/07:00am 8.3 3.5 0.2 56 3.2 SSW 15 30 8 16 1020.8 1020.8 0.8
19/06:30am 8.5 3.5 1.1 59 3.0 SW 17 30 9 16 1019.9 1019.9 0.8
19/06:00am 8.7 3.7 1.4 60 3.0 SSW 17 20 9 11 1019.1 1019.1 0.8
19/05:30am 9.0 4.7 0.9 57 3.3 SW 13 24 7 13 1018.4 1018.4 0.8
19/05:00am 7.7 4.7 4.0 77 1.6 SSW 9 15 5 8 1017.6 1017.6 0.8
19/04:30am 7.9 2.2 4.7 80 1.4 SSW 24 35 13 19 1016.7 1016.7 0.8
19/04:00am 8.4 1.4 4.3 75 1.8 SSW 30 43 16 23 1016.0 1016.0 0.2
19/03:30am 9.1 4.0 4.3 72 2.1 SSW 20 32 11 17 1015.1 1015.1 0.2
19/03:00am 9.1 4.8 5.1 76 1.8 SSW 17 22 9 12 1014.2 1014.2 0.0
19/02:30am 9.5 3.8 4.8 72 2.1 SW 24 35 13 19 1013.8 1013.8 0.0
19/02:00am 9.4 4.3 2.9 64 2.8 WSW 19 28 10 15 1013.1 1013.1 0.0
19/01:30am 8.5 5.7 3.4 70 2.2 WNW 7 9 4 5 1012.7 1012.7 0.0
19/01:00am 9.6 6.4 3.1 64 2.8 WNW 9 13 5 7 1012.3 1012.3 0.0
19/12:30am 9.9 5.9 2.9 62 3.0 WNW 13 17 7 9 1011.9 1011.9 0.0
19/12:00am 10.2 5.8 2.8 60 3.2 WNW 15 20 8 11 1011.2 1011.2 0.0
 
Date/Time
EST
Tmp

°C
App
Tmp
°C
Dew
Point
°C
Rel
Hum
%
Delta-T

°C
Wind Press
QNH
hPa
Press
MSL
hPa
Rain
since
9 am
mm
Dir
 
Spd
km/h
Gust
km/h
Spd
kts
Gust
kts
18/11:30pm 10.2 6.4 3.9 65 2.8 NW 13 19 7 10 1010.9 1010.9 0.0
18/11:00pm 9.9 7.2 3.8 66 2.7 NNW 7 9 4 5 1010.4 1010.4 0.0
18/10:30pm 11.4 7.8 3.2 57 3.6 N 11 20 6 11 1010.1 1010.1 0.0
18/10:00pm 11.0 8.6 4.1 62 3.1 NNW 6 9 3 5 1010.0 1010.0 0.0
18/09:30pm 11.9 8.0 3.3 55 3.8 W 13 20 7 11 1009.1 1009.1 0.0
18/09:00pm 12.2 7.4 2.6 52 4.2 WNW 17 24 9 13 1008.8 1008.8 0.0
18/08:30pm 12.2 7.8 2.9 53 4.1 WNW 15 26 8 14 1008.4 1008.4 0.0
18/08:00pm 12.4 6.3 2.6 51 4.3 NW 24 32 13 17 1007.8 1007.8 0.0
18/07:30pm 12.4 7.7 3.2 53 4.1 WNW 17 28 9 15 1007.0 1007.0 0.0
18/07:00pm 12.6 7.6 3.4 53 4.1 NW 19 22 10 12 1006.5 1006.5 0.0
18/06:30pm 13.2 5.5 2.3 47 4.8 WNW 32 44 17 24 1006.1 1006.1 0.0
18/06:00pm 13.6 8.5 3.1 49 4.7 NW 19 30 10 16 1006.1 1006.1 0.0
18/05:30pm 12.4 9.8 9.5 82 1.5 N 13 19 7 10 1005.8 1005.8 0.0
18/05:00pm 12.8 10.3 8.2 73 2.3 W 11 19 6 10 1004.9 1004.9 0.0
18/04:30pm 12.7 7.7 8.1 73 2.3 SW 24 35 13 19 1004.1 1004.1 0.0
18/04:11pm 12.5 6.5 8.7 77 1.9 SSW 30 48 16 26 1003.4 1003.4 0.0
18/04:00pm 13.4 6.7 7.3 66 3.0 SSW 32 44 17 24 1003.0 1003.0 0.0
18/03:33pm 14.7 10.5 8.1 64 3.3 WSW 20 48 11 26 1002.7 1002.7 0.0
18/03:30pm 19.6 15.1 6.0 41 6.8 W 19 30 10 16 1002.6 1002.6 0.0
18/03:24pm 19.5 12.8 5.8 40 6.8 WNW 30 41 16 22 1002.1 1002.1 0.0
18/03:00pm 19.9 12.7 5.9 40 7.0 NW 33 57 18 31 1001.6 1001.6 0.0
18/02:30pm 20.5 12.0 5.1 36 7.6 NW 39 56 21 30 1001.4 1001.3 0.0
18/02:05pm 21.0 13.6 4.1 33 8.2 WNW 32 50 17 27 1001.5 1001.4 0.0
18/02:00pm 20.6 11.6 4.7 35 7.8 WNW 41 54 22 29 1001.4 1001.3 0.0
18/01:50pm 20.6 12.7 4.1 33 7.9 NW 35 56 19 30 1001.5 1001.4 0.0
18/01:30pm 20.2 11.8 3.7 33 7.9 NW 37 48 20 26 1001.6 1001.6 0.0
18/01:00pm 21.2 13.1 3.2 30 8.6 NW 35 46 19 25 1001.9 1001.9 0.0
18/12:30pm 20.8 12.5 2.2 29 8.6 NW 35 50 19 27 1002.3 1002.3 0.0
18/12:00pm 20.6 12.6 0.4 26 9.1 NW 32 41 17 22 1002.8 1002.8 0.0
18/11:32am 19.6 12.6 1.7 30 8.2 NNW 28 46 15 25 1003.2 1003.2 0.0
18/11:30am 19.8 13.3 2.7 32 8.0 NW 26 37 14 20 1003.3 1003.3 0.0
18/11:00am 18.8 12.7 2.6 34 7.5 NNW 24 37 13 20 1004.1 1004.1 0.0
18/10:30am 18.2 11.5 3.5 37 6.9 NNW 28 39 15 21 1004.6 1004.6 0.0
18/10:00am 17.2 10.5 3.4 39 6.4 NNW 28 39 15 21 1004.8 1004.8 0.0
18/09:30am 16.5 9.7 3.0 40 6.2 NNW 28 43 15 23 1005.2 1005.2 0.0
18/09:00am 16.1 9.8 3.5 43 5.8 NNW 26 37 14 20 1005.8 1005.8 0.2
18/08:30am 15.3 10.3 3.5 45 5.4 NNW 19 30 10 16 1006.3 1006.3 0.2
18/08:00am 14.2 11.1 3.7 49 4.8 N 9 17 5 9 1006.7 1006.7 0.2
18/07:30am 13.0 9.6 4.0 54 4.1 N 11 17 6 9 1006.5 1006.5 0.2
18/07:00am 13.3 8.7 1.8 45 5.0 NNW 15 20 8 11 1006.2 1006.2 0.2
18/06:30am 12.6 8.4 4.0 56 3.9 NNW 15 24 8 13 1006.0 1006.0 0.2
18/06:00am 12.3 7.8 6.2 66 2.9 NNW 19 28 10 15 1005.8 1005.8 0.2
18/05:30am 12.5 8.6 6.9 68 2.7 NNW 17 26 9 14 1005.6 1005.6 0.2
18/05:00am 12.9 8.9 6.7 66 3.0 NNW 17 26 9 14 1005.8 1005.8 0.2
18/04:30am 13.2 8.2 6.3 63 3.3 N 22 32 12 17 1006.0 1006.0 0.2
18/04:00am 13.2 9.2 6.8 65 3.1 N 17 30 9 16 1006.2 1006.2 0.2
18/03:30am 13.2 10.0 7.0 66 3.0 N 13 20 7 11 1006.4 1006.4 0.2
18/03:00am 13.3 9.7 6.9 65 3.1 N 15 22 8 12 1006.5 1006.5 0.2
18/02:30am 13.5 9.5 6.7 63 3.3 N 17 24 9 13 1007.1 1007.1 0.2
18/02:00am 13.4 9.0 6.5 63 3.3 N 19 30 10 16 1008.0 1008.0 0.2
18/01:30am 13.3 9.8 7.1 66 3.0 NNW 15 22 8 12 1008.8 1008.8 0.2
18/01:00am 13.5 9.3 7.4 66 3.0 N 19 28 10 15 1009.5 1009.5 0.2
18/12:30am 13.1 8.0 7.8 70 2.6 NNW 24 33 13 18 1009.8 1009.8 0.2
18/12:00am 13.2 8.1 7.5 68 2.8 NNW 24 33 13 18 1010.2 1010.2 0.2
 
Date/Time
EST
Tmp

°C
App
Tmp
°C
Dew
Point
°C
Rel
Hum
%
Delta-T

°C
Wind Press
QNH
hPa
Press
MSL
hPa
Rain
since
9 am
mm
Dir
 
Spd
km/h
Gust
km/h
Spd
kts
Gust
kts
17/11:30pm 13.0 8.8 7.5 69 2.7 NNW 19 26 10 14 1010.5 1010.5 0.2
17/11:00pm 12.9 9.1 7.6 70 2.6 NNW 17 28 9 15 1010.9 1010.9 0.2
17/10:30pm 13.0 8.6 7.5 69 2.7 N 20 28 11 15 1011.6 1011.6 0.2
17/10:00pm 13.3 8.4 7.1 66 3.0 N 22 30 12 16 1012.0 1012.0 0.2
17/09:30pm 13.7 9.3 7.4 65 3.1 N 20 32 11 17 1012.3 1012.3 0.2
17/09:00pm 13.8 9.6 7.5 66 3.1 N 19 32 10 17 1012.6 1012.6 0.2
17/08:30pm 13.1 9.5 6.9 66 3.0 N 15 20 8 11 1012.8 1012.8 0.2
17/08:00pm 14.1 11.4 7.4 64 3.3 N 11 15 6 8 1012.8 1012.8 0.2
17/07:30pm 14.9 11.6 4.3 49 4.9 NNW 11 13 6 7 1013.1 1013.1 0.2
17/07:00pm 13.8 10.8 3.9 51 4.5 N 9 11 5 6 1013.0 1013.0 0.2
17/06:30pm 14.7 10.9 3.8 48 5.0 N 13 17 7 9 1013.1 1013.1 0.2
17/06:00pm 16.4 13.0 2.1 38 6.4 N 9 15 5 8 1012.9 1012.9 0.2
17/05:30pm 14.4 11.8 6.3 58 3.9 NNW 9 11 5 6 1013.1 1013.1 0.2
17/05:00pm 18.1 13.5 -1.2 27 8.2 NW 13 17 7 9 1012.8 1012.8 0.2
17/04:30pm 19.1 13.7 -1.2 25 8.7 NW 17 22 9 12 1013.1 1013.1 0.2
17/04:00pm 20.0 14.5 -1.8 23 9.3 WNW 17 28 9 15 1013.4 1013.4 0.2
17/03:30pm 21.0 13.9 -0.9 23 9.6 NW 26 35 14 19 1013.8 1013.8 0.2
17/03:00pm 19.8 15.8 5.0 37 7.2 NNW 15 22 8 12 1014.3 1014.3 0.2
17/02:30pm 20.2 15.3 4.2 35 7.7 NNW 19 26 10 14 1014.2 1014.2 0.2
17/02:00pm 21.0 14.5 0.6 25 9.2 NW 24 33 13 18 1014.5 1014.5 0.2
17/01:30pm 21.0 14.0 2.0 28 8.8 NW 28 35 15 19 1014.9 1014.9 0.2
17/01:00pm 20.1 14.4 3.1 32 8.0 NW 22 32 12 17 1015.7 1015.7 0.2
17/12:30pm 19.8 14.6 3.5 34 7.7 NNW 20 32 11 17 1016.3 1016.3 0.2
17/12:00pm 19.1 12.4 3.9 36 7.2 NW 28 33 15 18 1017.1 1017.1 0.2
17/11:30am 18.4 11.8 4.0 38 6.8 NW 28 39 15 21 1017.8 1017.8 0.0
17/11:00am 17.3 9.9 4.1 41 6.2 NW 32 41 17 22 1017.9 1017.9 0.0
17/10:30am 17.0 11.5 4.2 42 6.0 NNW 22 32 12 17 1018.8 1018.8 0.0
17/10:00am 16.6 11.7 5.3 47 5.4 NNW 20 32 11 17 1019.1 1019.1 0.0
17/09:30am 16.1 11.8 5.4 49 5.1 NW 17 28 9 15 1019.2 1019.2 0.0
17/09:00am 14.8 10.6 5.5 53 4.4 NNW 17 26 9 14 1019.7 1019.7 0.0

Latest Capital City Observations: Canberra | Sydney | Melbourne | Brisbane | Adelaide | Perth | Hobart | Darwin

Other Formats:

Comma delimited format used in spreadsheet applications
http://www.bom.gov.au/fwo/IDT60901/IDT60901.94975.axf

JavaScript Object Notation format (JSON) in row-major order
http://www.bom.gov.au/fwo/IDT60901/IDT60901.94975.json